Time;durP1;ratioP1;P1;durP2;ratioP2;P2;SDS_P1;SDS_P2;PMS_P1;PMS_P2;Temp;Humidity;BMP_temperature;BMP_pressure;BME280_temperature;BME280_humidity;BME280_pressure;Samples;Min_cycle;Max_cycle;Signal;HPM_P1;HPM_P2
2021/04/28 00:01:26;;;;;;;6.18;2.80;;;10.80;58.70;;;;;;4157709;28;20124;-70
2021/04/28 00:03:26;;;;;;;6.55;2.70;;;10.80;58.50;;;;;;4153023;28;20117;-70
2021/04/28 00:05:27;;;;;;;4.63;2.90;;;10.70;58.30;;;;;;4151485;28;20029;-70
2021/04/28 00:07:28;;;;;;;5.45;3.38;;;10.70;58.30;;;;;;4157033;28;20076;-70
2021/04/28 00:09:29;;;;;;;4.72;3.22;;;10.70;58.50;;;;;;4164681;28;20398;-70
2021/04/28 00:11:30;;;;;;;5.90;3.30;;;10.70;58.10;;;;;;4151154;28;20117;-70
2021/04/28 00:13:31;;;;;;;3.53;2.50;;;10.70;58.50;;;;;;4147144;28;20099;-70
2021/04/28 00:15:33;;;;;;;4.75;2.92;;;10.70;58.40;;;;;;4148627;28;20029;-70
2021/04/28 00:17:35;;;;;;;5.65;3.50;;;10.70;58.50;;;;;;4125975;28;20478;-70
2021/04/28 00:19:35;;;;;;;3.78;2.97;;;10.70;58.30;;;;;;4142944;28;20062;-70
2021/04/28 00:21:36;;;;;;;13.77;3.33;;;10.70;58.40;;;;;;4151307;28;20041;-70
2021/04/28 00:23:37;;;;;;;4.07;2.90;;;10.70;58.20;;;;;;4154039;28;20156;-70
2021/04/28 00:25:38;;;;;;;6.15;3.20;;;10.70;58.80;;;;;;4150988;28;20049;-70
2021/04/28 00:27:39;;;;;;;4.78;3.10;;;10.60;58.90;;;;;;4143129;28;20646;-70
2021/04/28 00:29:39;;;;;;;5.65;3.45;;;10.70;59.10;;;;;;4157793;28;20048;-70
2021/04/28 00:31:40;;;;;;;5.55;2.60;;;10.60;58.90;;;;;;4146347;28;20034;-70
2021/04/28 00:33:41;;;;;;;5.20;3.22;;;10.60;59.10;;;;;;4141832;28;20157;-70
2021/04/28 00:35:41;;;;;;;7.75;2.97;;;10.60;59.70;;;;;;4135189;28;20041;-70
2021/04/28 00:37:42;;;;;;;4.20;2.88;;;10.60;60.10;;;;;;4127765;28;20034;-70
2021/04/28 00:39:43;;;;;;;4.57;3.00;;;10.60;59.30;;;;;;4141379;28;20037;-70
2021/04/28 00:41:44;;;;;;;4.72;3.40;;;10.60;59.90;;;;;;4143201;28;20034;-70
2021/04/28 00:43:45;;;;;;;4.13;2.83;;;10.60;59.50;;;;;;4142835;28;20034;-70
2021/04/28 00:45:46;;;;;;;4.78;3.17;;;10.50;59.40;;;;;;4140710;28;20517;-70
2021/04/28 00:47:47;;;;;;;6.05;3.38;;;10.50;59.50;;;;;;4158057;28;20152;-70
2021/04/28 00:49:48;;;;;;;5.15;2.88;;;10.50;59.40;;;;;;4173847;28;20564;-70
2021/04/28 00:51:48;;;;;;;5.18;3.60;;;10.50;59.40;;;;;;4140874;28;20038;-70
2021/04/28 00:53:50;;;;;;;6.88;2.80;;;10.40;59.40;;;;;;4142564;28;20040;-70
2021/04/28 00:55:52;;;;;;;5.20;3.20;;;10.40;59.80;;;;;;4132879;28;20116;-70
2021/04/28 00:57:53;;;;;;;4.60;3.17;;;10.40;59.80;;;;;;4138631;28;20061;-70
2021/04/28 00:59:54;;;;;;;6.35;3.25;;;10.40;59.70;;;;;;4142154;28;20088;-70
2021/04/28 01:01:55;;;;;;;4.78;3.13;;;10.40;60.30;;;;;;4142815;28;20057;-70
2021/04/28 01:03:56;;;;;;;6.43;2.88;;;10.30;60.40;;;;;;4142073;28;20030;-70
2021/04/28 01:05:59;;;;;;;5.10;3.20;;;10.30;61.10;;;;;;4142118;28;20108;-71
2021/04/28 01:08:00;;;;;;;6.22;3.60;;;10.30;61.20;;;;;;4142903;28;20053;-70
2021/04/28 01:10:04;;;;;;;4.40;3.03;;;10.30;60.80;;;;;;4142309;28;21560;-70
2021/04/28 01:12:06;;;;;;;5.07;3.35;;;10.30;61.20;;;;;;4142817;28;20026;-70
2021/04/28 01:14:09;;;;;;;4.88;3.53;;;10.10;61.40;;;;;;4142342;28;20037;-70
2021/04/28 01:16:10;;;;;;;5.45;3.60;;;10.10;61.70;;;;;;4146226;28;21200;-70
2021/04/28 01:18:11;;;;;;;7.10;3.70;;;10.10;62.00;;;;;;4155800;28;20056;-70
2021/04/28 01:20:14;;;;;;;5.85;3.47;;;10.00;62.40;;;;;;4150128;28;20390;-70
2021/04/28 01:22:16;;;;;;;5.32;3.65;;;9.90;63.00;;;;;;4151867;28;20033;-70
2021/04/28 01:24:17;;;;;;;6.30;3.80;;;9.80;63.30;;;;;;4127441;28;20399;-71
2021/04/28 01:26:22;;;;;;;5.22;3.20;;;9.80;63.70;;;;;;4157218;28;20037;-70
2021/04/28 01:28:24;;;;;;;4.65;3.20;;;9.80;63.60;;;;;;4156264;28;20049;-71
2021/04/28 01:30:34;;;;;;;8.20;3.90;;;9.80;63.70;;;;;;4148362;28;20441;-70
2021/04/28 01:32:37;;;;;;;7.03;3.67;;;9.70;63.50;;;;;;4150765;28;20272;-70
2021/04/28 01:34:39;;;;;;;6.07;3.17;;;9.70;63.90;;;;;;4141639;28;20494;-70
2021/04/28 01:36:41;;;;;;;5.00;3.70;;;9.70;63.90;;;;;;4150703;28;20049;-70
2021/04/28 01:38:45;;;;;;;5.00;3.42;;;9.70;64.00;;;;;;4141132;28;20378;-70
2021/04/28 01:40:47;;;;;;;5.00;3.55;;;9.70;63.80;;;;;;4138889;28;20042;-70
2021/04/28 01:42:49;;;;;;;6.03;3.92;;;9.70;64.90;;;;;;4159282;28;20121;-70
2021/04/28 01:44:51;;;;;;;4.70;3.72;;;9.70;64.10;;;;;;4146993;28;20045;-70
2021/04/28 01:46:53;;;;;;;8.40;3.50;;;9.70;64.30;;;;;;4157978;28;20758;-70
2021/04/28 01:48:54;;;;;;;5.63;3.60;;;9.60;65.20;;;;;;4158826;28;20780;-70
2021/04/28 01:50:55;;;;;;;5.43;3.22;;;9.60;65.70;;;;;;4147610;28;20040;-71
2021/04/28 01:52:56;;;;;;;5.55;3.65;;;9.50;65.60;;;;;;4151487;28;20108;-71
2021/04/28 01:54:58;;;;;;;6.93;3.53;;;9.50;66.20;;;;;;4144526;28;20042;-71
2021/04/28 01:56:58;;;;;;;6.18;3.53;;;9.60;65.90;;;;;;4150412;28;20057;-70
2021/04/28 01:58:59;;;;;;;4.63;3.15;;;9.50;65.90;;;;;;4153123;28;20046;-70
2021/04/28 02:01:00;;;;;;;4.55;3.20;;;9.50;66.20;;;;;;4145515;28;20026;-70
2021/04/28 02:03:01;;;;;;;7.82;4.10;;;9.50;66.90;;;;;;4156179;28;20037;-70
2021/04/28 02:05:05;;;;;;;5.47;3.50;;;9.60;67.00;;;;;;4151210;28;20177;-70
2021/04/28 02:07:06;;;;;;;5.53;3.85;;;9.50;68.10;;;;;;4144995;28;20041;-70
2021/04/28 02:09:07;;;;;;;4.50;3.40;;;9.50;67.70;;;;;;4159862;28;20040;-70
2021/04/28 02:11:08;;;;;;;5.53;3.72;;;9.50;68.80;;;;;;4145136;28;20049;-70
2021/04/28 02:13:11;;;;;;;5.50;3.65;;;9.50;68.40;;;;;;4152955;28;20037;-70
2021/04/28 02:15:13;;;;;;;5.32;3.10;;;9.50;69.70;;;;;;4144667;28;20042;-70
2021/04/28 02:17:15;;;;;;;4.07;3.15;;;9.50;68.00;;;;;;4149644;28;20034;-70
2021/04/28 02:19:17;;;;;;;8.60;3.65;;;9.50;69.70;;;;;;4148530;28;20114;-70
2021/04/28 02:21:18;;;;;;;5.18;3.60;;;9.50;70.30;;;;;;4146932;28;20034;-70
2021/04/28 02:23:19;;;;;;;6.03;3.38;;;9.50;68.60;;;;;;4144842;28;20037;-70
2021/04/28 02:25:19;;;;;;;6.30;3.95;;;9.50;68.40;;;;;;4175883;28;20033;-71
2021/04/28 02:27:20;;;;;;;5.95;3.88;;;9.50;68.00;;;;;;4150202;28;20036;-70
2021/04/28 02:29:21;;;;;;;5.35;3.58;;;9.50;68.50;;;;;;4146394;28;20114;-70
2021/04/28 02:31:21;;;;;;;4.78;3.75;;;9.40;68.70;;;;;;4176290;28;20037;-70
2021/04/28 02:33:22;;;;;;;7.10;3.88;;;9.50;69.10;;;;;;4153094;28;20117;-70
2021/04/28 02:35:25;;;;;;;6.90;3.45;;;9.50;68.50;;;;;;4144507;28;20127;-70
2021/04/28 02:37:28;;;;;;;6.10;4.32;;;9.40;68.70;;;;;;4151093;28;20416;-70
2021/04/28 02:39:51;;;;;;;7.65;4.30;;;9.50;68.40;;;;;;4160734;28;20040;-71
2021/04/28 02:41:52;;;;;;;4.78;3.58;;;9.40;68.30;;;;;;4146133;28;20081;-70
2021/04/28 02:43:54;;;;;;;6.68;4.25;;;9.40;68.60;;;;;;4149781;28;20112;-71
2021/04/28 02:45:56;;;;;;;5.72;3.90;;;9.40;69.10;;;;;;4144116;28;20062;-70
2021/04/28 02:47:59;;;;;;;5.95;4.45;;;9.40;69.80;;;;;;4153138;28;22126;-70
2021/04/28 02:50:11;;;;;;;8.02;4.47;;;9.40;71.50;;;;;;4144790;28;20083;-70
2021/04/28 02:52:12;;;;;;;7.32;3.80;;;9.40;72.80;;;;;;4152551;28;20030;-71
2021/04/28 02:54:14;;;;;;;5.90;3.60;;;9.30;71.90;;;;;;4151056;28;20116;-70
2021/04/28 02:56:15;;;;;;;7.53;4.15;;;9.30;72.40;;;;;;4144285;28;20048;-70
2021/04/28 02:58:16;;;;;;;5.22;3.70;;;9.30;73.00;;;;;;4149964;28;20057;-70
2021/04/28 03:00:20;;;;;;;4.90;3.65;;;9.20;71.50;;;;;;4166968;28;20037;-70
2021/04/28 03:02:21;;;;;;;6.20;4.00;;;9.20;71.80;;;;;;4152383;28;20030;-70
2021/04/28 03:04:22;;;;;;;6.35;4.07;;;9.30;72.70;;;;;;4125712;28;20065;-70
2021/04/28 03:06:22;;;;;;;7.18;4.25;;;9.20;74.60;;;;;;4127981;28;20034;-70
2021/04/28 03:08:23;;;;;;;5.93;3.95;;;9.20;73.40;;;;;;4134024;28;20026;-70
2021/04/28 03:10:24;;;;;;;7.90;4.20;;;9.20;75.20;;;;;;4131292;28;20444;-70
2021/04/28 03:12:25;;;;;;;6.28;4.18;;;9.20;74.40;;;;;;4133887;28;20030;-70
2021/04/28 03:14:25;;;;;;;6.30;3.80;;;9.10;75.30;;;;;;4140829;28;20042;-70
2021/04/28 03:16:27;;;;;;;7.13;4.60;;;9.10;74.50;;;;;;4129273;28;20618;-70
2021/04/28 03:18:28;;;;;;;5.35;3.72;;;9.10;75.50;;;;;;4133556;28;20060;-70
2021/04/28 03:20:29;;;;;;;5.85;3.92;;;9.10;76.00;;;;;;4143573;28;20053;-70
2021/04/28 03:22:30;;;;;;;7.75;4.35;;;9.10;76.50;;;;;;4128906;28;20038;-70
2021/04/28 03:24:31;;;;;;;6.80;4.50;;;9.00;77.00;;;;;;4141083;28;20038;-70
2021/04/28 03:26:31;;;;;;;7.28;4.30;;;9.00;78.30;;;;;;4140078;28;20038;-70
2021/04/28 03:28:32;;;;;;;6.95;4.18;;;9.00;78.60;;;;;;4128585;28;20118;-70
2021/04/28 03:30:33;;;;;;;5.78;4.13;;;9.00;78.80;;;;;;4156020;28;20109;-70
2021/04/28 03:32:34;;;;;;;7.55;4.68;;;9.00;77.40;;;;;;4125362;28;20027;-71
2021/04/28 03:34:35;;;;;;;6.28;4.20;;;9.00;80.40;;;;;;4128225;28;20066;-70
2021/04/28 03:36:36;;;;;;;6.00;4.07;;;8.90;79.30;;;;;;4127565;28;20359;-70
2021/04/28 03:38:37;;;;;;;5.63;4.15;;;8.90;79.70;;;;;;4135598;28;20032;-71
2021/04/28 03:40:38;;;;;;;7.55;4.15;;;8.90;79.00;;;;;;4127473;28;20030;-70
2021/04/28 03:42:38;;;;;;;6.15;4.10;;;8.90;78.90;;;;;;4127427;28;20050;-70
2021/04/28 03:44:39;;;;;;;6.35;4.15;;;8.90;78.00;;;;;;4126260;28;20600;-70
2021/04/28 03:46:40;;;;;;;6.25;3.90;;;8.90;78.10;;;;;;4151259;28;20026;-70
2021/04/28 03:48:41;;;;;;;6.18;3.80;;;8.80;78.80;;;;;;4128145;28;20101;-70
2021/04/28 03:50:41;;;;;;;6.70;4.50;;;8.90;78.60;;;;;;4137338;28;20057;-70
2021/04/28 03:52:42;;;;;;;6.57;4.35;;;8.80;78.70;;;;;;4126915;28;20125;-70
2021/04/28 03:54:42;;;;;;;6.60;4.22;;;8.80;79.10;;;;;;4135616;28;20034;-70
2021/04/28 03:56:44;;;;;;;6.60;4.45;;;8.70;79.10;;;;;;4141433;28;20629;-70
2021/04/28 03:58:45;;;;;;;7.82;4.25;;;8.70;80.40;;;;;;4133385;28;20084;-70
2021/04/28 04:00:45;;;;;;;8.50;4.80;;;8.70;80.40;;;;;;4125590;28;20458;-70
2021/04/28 04:02:46;;;;;;;8.85;4.85;;;8.70;81.60;;;;;;4155376;28;20038;-70
2021/04/28 04:04:46;;;;;;;8.70;4.78;;;8.60;82.00;;;;;;4143504;28;20058;-70
2021/04/28 04:06:47;;;;;;;6.57;4.65;;;8.60;82.10;;;;;;4132342;28;20038;-70
2021/04/28 04:08:48;;;;;;;9.65;4.82;;;8.60;82.30;;;;;;4134863;28;20034;-70
2021/04/28 04:10:48;;;;;;;6.47;4.25;;;8.60;83.10;;;;;;4143797;28;20119;-70
2021/04/28 04:12:49;;;;;;;10.45;5.50;;;8.60;83.00;;;;;;4131116;28;20038;-70
2021/04/28 04:14:49;;;;;;;8.30;5.10;;;8.60;83.70;;;;;;4133330;28;20146;-70
2021/04/28 04:16:50;;;;;;;8.93;5.25;;;8.60;84.40;;;;;;4131127;28;20034;-70
2021/04/28 04:18:51;;;;;;;6.13;4.28;;;8.60;84.50;;;;;;4127790;28;20096;-70
2021/04/28 04:20:51;;;;;;;6.47;4.22;;;8.60;84.70;;;;;;4136392;28;20426;-70
2021/04/28 04:22:52;;;;;;;6.40;4.60;;;8.50;84.60;;;;;;4133787;28;20120;-70
2021/04/28 04:24:53;;;;;;;6.18;4.25;;;8.50;85.00;;;;;;4134778;28;20101;-70
2021/04/28 04:26:53;;;;;;;9.40;4.80;;;8.50;85.40;;;;;;4131062;28;20097;-71
2021/04/28 04:28:54;;;;;;;7.32;4.38;;;8.50;86.00;;;;;;4133302;28;20112;-70
2021/04/28 04:30:55;;;;;;;6.65;4.15;;;8.50;86.40;;;;;;4127842;28;20034;-70
2021/04/28 04:32:55;;;;;;;8.50;4.70;;;8.50;86.20;;;;;;4125745;28;20038;-70
2021/04/28 04:34:56;;;;;;;7.10;4.53;;;8.40;91.10;;;;;;4128658;28;20514;-70
2021/04/28 04:36:56;;;;;;;8.68;4.85;;;8.40;92.40;;;;;;4126549;28;20093;-70
2021/04/28 04:38:57;;;;;;;9.10;4.75;;;8.40;92.20;;;;;;4128582;28;20039;-70
2021/04/28 04:40:58;;;;;;;8.23;5.25;;;8.40;93.50;;;;;;4127038;28;20089;-70
2021/04/28 04:42:58;;;;;;;10.05;5.38;;;8.40;93.50;;;;;;4126382;28;20940;-71
2021/04/28 04:44:59;;;;;;;7.10;4.43;;;8.50;93.80;;;;;;4143383;28;20669;-70
2021/04/28 04:47:00;;;;;;;7.35;4.60;;;8.50;93.20;;;;;;4136311;28;20035;-70
2021/04/28 04:49:00;;;;;;;8.35;4.68;;;8.50;94.40;;;;;;4126932;28;20030;-70
2021/04/28 04:51:01;;;;;;;7.32;4.35;;;8.50;95.00;;;;;;4157426;28;20668;-70
2021/04/28 04:53:03;;;;;;;7.80;4.88;;;8.50;93.40;;;;;;4127163;28;20125;-70
2021/04/28 04:55:04;;;;;;;7.30;5.07;;;8.50;95.00;;;;;;4134347;28;20498;-70
2021/04/28 04:57:05;;;;;;;8.50;5.05;;;8.50;93.70;;;;;;4127016;28;20034;-70
2021/04/28 04:59:06;;;;;;;7.15;4.28;;;8.50;94.70;;;;;;4125588;28;20103;-70
2021/04/28 05:01:07;;;;;;;9.90;4.97;;;8.50;95.80;;;;;;4113113;28;20078;-70
2021/04/28 05:03:07;;;;;;;8.15;4.78;;;8.50;94.90;;;;;;4128338;28;20375;-70
2021/04/28 05:05:09;;;;;;;10.90;5.05;;;8.50;94.80;;;;;;4131006;28;20042;-70
2021/04/28 05:07:10;;;;;;;8.48;4.82;;;8.50;94.40;;;;;;4126047;28;20121;-70
2021/04/28 05:09:10;;;;;;;9.05;5.35;;;8.50;94.50;;;;;;4136952;28;20038;-70
2021/04/28 05:11:11;;;;;;;7.15;5.03;;;8.60;96.00;;;;;;4140369;28;20157;-70
2021/04/28 05:13:12;;;;;;;9.73;5.72;;;8.60;95.10;;;;;;4173834;28;20087;-70
2021/04/28 05:15:15;;;;;;;9.93;5.53;;;8.50;94.70;;;;;;4143877;28;20215;-70
2021/04/28 05:17:15;;;;;;;7.60;5.20;;;8.60;95.10;;;;;;4142895;28;20034;-70
2021/04/28 05:19:16;;;;;;;9.68;5.93;;;8.60;95.20;;;;;;4139704;28;20414;-70
2021/04/28 05:21:16;;;;;;;9.45;5.63;;;8.60;95.30;;;;;;4141420;28;20044;-70
2021/04/28 05:23:17;;;;;;;10.82;6.68;;;8.60;95.30;;;;;;4132858;28;20046;-70
2021/04/28 05:25:18;;;;;;;9.15;5.50;;;8.60;95.40;;;;;;4144623;28;20040;-70
2021/04/28 05:27:19;;;;;;;9.77;5.20;;;8.60;95.90;;;;;;4169744;28;20052;-71
2021/04/28 05:29:19;;;;;;;9.82;5.82;;;8.60;96.00;;;;;;4143775;28;20046;-70
2021/04/28 05:31:20;;;;;;;10.32;6.07;;;8.60;96.60;;;;;;4144943;28;20409;-70
2021/04/28 05:33:21;;;;;;;10.02;6.43;;;8.60;97.10;;;;;;4144826;28;20042;-70
2021/04/28 05:35:22;;;;;;;14.48;6.68;;;8.60;97.40;;;;;;4144498;28;20030;-70
2021/04/28 05:37:23;;;;;;;14.07;6.28;;;8.50;98.50;;;;;;4143493;28;20042;-70
2021/04/28 05:39:23;;;;;;;10.68;6.35;;;8.50;98.80;;;;;;4141904;28;20042;-70
2021/04/28 05:41:24;;;;;;;14.05;8.10;;;8.40;99.90;;;;;;4159708;28;20477;-70
2021/04/28 05:43:25;;;;;;;12.75;6.72;;;8.40;99.90;;;;;;4143094;28;20040;-70
2021/04/28 05:45:26;;;;;;;9.75;6.13;;;8.40;99.90;;;;;;4182590;28;20067;-70
2021/04/28 05:47:26;;;;;;;11.05;6.80;;;8.50;99.90;;;;;;4155426;28;20033;-70
2021/04/28 05:49:27;;;;;;;16.33;6.88;;;8.50;99.90;;;;;;4178541;28;20025;-70
2021/04/28 05:51:28;;;;;;;16.92;6.90;;;8.50;99.90;;;;;;4140224;28;20494;-70
2021/04/28 05:53:28;;;;;;;13.07;6.60;;;8.60;99.90;;;;;;4140303;28;23639;-70
2021/04/28 05:55:30;;;;;;;12.73;6.78;;;8.60;99.90;;;;;;4140866;28;20045;-70
2021/04/28 05:57:35;;;;;;;11.02;6.55;;;8.70;99.90;;;;;;4139571;28;20057;-70
2021/04/28 05:59:36;;;;;;;14.95;6.95;;;8.70;99.90;;;;;;4140558;28;20034;-70
2021/04/28 06:01:36;;;;;;;13.50;7.32;;;8.70;99.90;;;;;;4135270;28;20361;-70
2021/04/28 06:03:37;;;;;;;14.50;6.80;;;8.80;99.90;;;;;;4141627;28;20032;-70
2021/04/28 06:05:38;;;;;;;13.60;7.10;;;8.80;99.90;;;;;;4162267;28;20477;-70
2021/04/28 06:07:39;;;;;;;14.32;7.72;;;8.90;99.90;;;;;;4143843;28;20041;-72
2021/04/28 06:09:39;;;;;;;15.93;7.65;;;9.00;99.90;;;;;;4142702;28;20042;-68
2021/04/28 06:11:40;;;;;;;10.80;6.70;;;9.00;99.90;;;;;;4144368;28;20049;-68
2021/04/28 06:13:40;;;;;;;15.27;7.72;;;9.10;99.90;;;;;;4144112;28;20117;-68
2021/04/28 06:15:41;;;;;;;14.73;7.95;;;9.20;99.90;;;;;;4143378;28;20030;-68
2021/04/28 06:17:43;;;;;;;14.02;8.13;;;9.10;99.90;;;;;;4142003;28;20088;-68
2021/04/28 06:19:43;;;;;;;12.55;7.65;;;9.20;99.90;;;;;;4144315;28;20229;-68
2021/04/28 06:21:44;;;;;;;15.77;8.02;;;9.30;99.90;;;;;;4140921;28;20053;-68
2021/04/28 06:23:46;;;;;;;16.02;8.30;;;9.30;99.90;;;;;;4157906;28;20057;-68
2021/04/28 06:25:48;;;;;;;19.85;8.55;;;9.40;99.90;;;;;;4144078;28;20041;-68
2021/04/28 06:27:49;;;;;;;;;;;9.40;99.90;;;;;;4143879;28;20100;-68
2021/04/28 06:29:51;;;;;;;15.40;7.85;;;9.50;99.90;;;;;;4143884;28;19913;-68
2021/04/28 06:31:52;;;;;;;18.03;8.70;;;9.60;99.90;;;;;;4128318;28;20022;-68
2021/04/28 06:33:52;;;;;;;13.73;8.13;;;9.70;99.90;;;;;;4144455;28;20037;-68
2021/04/28 06:35:53;;;;;;;15.20;8.57;;;9.90;99.90;;;;;;4143562;28;20037;-69
2021/04/28 06:37:54;;;;;;;13.98;8.05;;;10.00;99.90;;;;;;4142834;28;20092;-68
2021/04/28 06:39:54;;;;;;;15.27;7.50;;;10.10;99.90;;;;;;4147343;28;20117;-68
2021/04/28 06:41:55;;;;;;;17.63;8.43;;;10.20;99.90;;;;;;4164278;28;20045;-68
2021/04/28 06:43:56;;;;;;;14.85;8.10;;;10.30;99.90;;;;;;4143069;28;20033;-68
2021/04/28 06:45:57;;;;;;;12.55;8.00;;;10.30;99.90;;;;;;4143419;28;20050;-68
2021/04/28 06:47:58;;;;;;;12.27;7.40;;;10.40;99.90;;;;;;4143878;28;20136;-68
2021/04/28 06:49:58;;;;;;;13.85;7.68;;;10.50;99.90;;;;;;4158381;28;20099;-69
2021/04/28 06:51:59;;;;;;;19.50;7.97;;;10.60;99.90;;;;;;4145460;28;20048;-68
2021/04/28 06:54:00;;;;;;;14.88;7.57;;;10.70;99.90;;;;;;4145983;28;20053;-68
2021/04/28 06:56:01;;;;;;;10.80;6.95;;;10.80;99.80;;;;;;4142592;28;20053;-68
2021/04/28 06:58:02;;;;;;;15.15;7.90;;;10.90;99.90;;;;;;4141251;28;20030;-68
2021/04/28 07:00:06;;;;;;;13.32;7.68;;;11.00;98.10;;;;;;4156774;28;20033;-68
2021/04/28 07:02:07;;;;;;;13.82;7.72;;;11.00;99.60;;;;;;4144145;28;20034;-68
2021/04/28 07:04:08;;;;;;;12.15;7.40;;;11.10;99.90;;;;;;4143907;28;20088;-68
2021/04/28 07:06:11;;;;;;;14.02;7.07;;;11.20;99.20;;;;;;4144724;28;20509;-69
2021/04/28 07:08:12;;;;;;;16.70;8.10;;;11.30;99.90;;;;;;4141653;28;20034;-68
2021/04/28 07:10:13;;;;;;;15.70;7.45;;;11.30;99.90;;;;;;4153164;28;20642;-68
2021/04/28 07:12:14;;;;;;;14.95;7.78;;;11.40;99.90;;;;;;4157165;28;20034;-68
2021/04/28 07:14:16;;;;;;;14.32;8.23;;;11.50;98.30;;;;;;4141902;28;20041;-68
2021/04/28 07:16:17;;;;;;;12.90;7.88;;;11.50;98.60;;;;;;4141838;28;20405;-69
2021/04/28 07:18:19;;;;;;;12.80;7.55;;;11.60;99.90;;;;;;4142343;28;20053;-68
2021/04/28 07:20:19;;;;;;;12.27;7.47;;;11.70;99.90;;;;;;4142265;28;20670;-68
2021/04/28 07:22:20;;;;;;;17.55;7.60;;;11.70;99.90;;;;;;4142641;28;20424;-68
2021/04/28 07:24:21;;;;;;;13.88;8.00;;;11.80;97.80;;;;;;4142094;28;20033;-69
2021/04/28 07:26:22;;;;;;;14.38;7.18;;;11.80;99.80;;;;;;4142033;28;20037;-69
2021/04/28 07:28:22;;;;;;;11.63;7.13;;;11.90;99.90;;;;;;4142862;28;20101;-68
2021/04/28 07:30:23;;;;;;;11.23;7.07;;;11.90;99.10;;;;;;4142097;28;20130;-68
2021/04/28 07:32:24;;;;;;;12.15;6.93;;;12.00;98.90;;;;;;4141161;28;20151;-66
2021/04/28 07:34:25;;;;;;;12.07;6.85;;;12.10;97.80;;;;;;4141343;28;20038;-66
2021/04/28 07:36:27;;;;;;;14.02;7.20;;;12.20;98.50;;;;;;4141477;28;20041;-66
2021/04/28 07:38:27;;;;;;;14.32;7.38;;;12.20;95.40;;;;;;4152543;28;20104;-66
2021/04/28 07:40:28;;;;;;;12.02;7.53;;;12.30;94.90;;;;;;4142991;28;20414;-66
2021/04/28 07:42:29;;;;;;;14.55;8.02;;;12.40;94.40;;;;;;4142314;28;20542;-66
2021/04/28 07:44:32;;;;;;;9.23;6.68;;;12.40;89.20;;;;;;4141355;28;20045;-68
2021/04/28 07:46:35;;;;;;;12.13;6.82;;;12.50;91.40;;;;;;4139464;28;20616;-68
2021/04/28 07:48:35;;;;;;;13.73;7.57;;;12.50;91.60;;;;;;4166821;28;20018;-68
2021/04/28 07:50:37;;;;;;;12.75;7.78;;;12.60;84.50;;;;;;4156319;28;20157;-69
2021/04/28 07:52:38;;;;;;;13.25;7.72;;;12.60;90.40;;;;;;4154471;28;20128;-66
2021/04/28 07:54:39;;;;;;;14.10;7.32;;;12.70;88.30;;;;;;4161194;28;20069;-66
2021/04/28 07:56:40;;;;;;;18.48;7.63;;;12.80;90.10;;;;;;4142277;28;20026;-66
2021/04/28 07:58:40;;;;;;;15.07;7.28;;;12.80;87.60;;;;;;4155638;28;20030;-66
2021/04/28 08:00:42;;;;;;;13.43;6.97;;;12.80;89.70;;;;;;4124335;28;20093;-66
2021/04/28 08:02:42;;;;;;;13.48;7.53;;;12.90;90.50;;;;;;4125562;28;20109;-67
2021/04/28 08:04:43;;;;;;;11.40;6.60;;;12.90;89.10;;;;;;4140147;28;20065;-69
2021/04/28 08:06:44;;;;;;;12.05;7.93;;;13.00;90.10;;;;;;4125456;28;20034;-68
2021/04/28 08:08:44;;;;;;;12.07;7.68;;;13.10;91.30;;;;;;4125186;28;20042;-69
2021/04/28 08:10:45;;;;;;;13.55;7.53;;;13.20;90.90;;;;;;4123102;28;20052;-69
2021/04/28 08:12:46;;;;;;;12.07;7.55;;;13.20;88.70;;;;;;4124628;28;20587;-68
2021/04/28 08:14:46;;;;;;;12.60;8.07;;;13.30;87.40;;;;;;4124990;28;20550;-68
2021/04/28 08:16:47;;;;;;;14.07;7.57;;;13.30;85.20;;;;;;4139383;28;20038;-68
2021/04/28 08:18:48;;;;;;;14.75;7.95;;;13.30;85.60;;;;;;4124660;28;20049;-69
2021/04/28 08:20:49;;;;;;;11.73;7.32;;;13.30;83.10;;;;;;4123846;28;20511;-68
2021/04/28 08:22:50;;;;;;;10.27;6.90;;;13.40;83.90;;;;;;4124838;28;20065;-69
2021/04/28 08:24:51;;;;;;;14.35;7.38;;;13.40;84.90;;;;;;4139088;28;20088;-68
2021/04/28 08:26:52;;;;;;;15.10;7.85;;;13.50;84.90;;;;;;4125233;28;20199;-68
2021/04/28 08:28:56;;;;;;;14.45;7.25;;;13.50;84.70;;;;;;4119917;28;20042;-69
2021/04/28 08:30:57;;;;;;;13.45;7.65;;;13.60;84.70;;;;;;4134590;28;20038;-69
2021/04/28 08:32:57;;;;;;;13.40;7.80;;;13.70;86.00;;;;;;4140842;28;20034;-69
2021/04/28 08:34:58;;;;;;;15.90;7.72;;;13.80;89.70;;;;;;4140364;28;20529;-66
2021/04/28 08:36:59;;;;;;;12.55;7.55;;;13.90;86.50;;;;;;4137835;28;20116;-66
2021/04/28 08:39:00;;;;;;;13.73;7.00;;;14.00;91.50;;;;;;4141527;28;20569;-66
2021/04/28 08:41:01;;;;;;;14.93;7.38;;;14.10;77.60;;;;;;4140929;28;20037;-66
2021/04/28 08:43:03;;;;;;;12.35;7.07;;;14.20;72.90;;;;;;4157042;28;20042;-66
2021/04/28 08:45:05;;;;;;;12.98;7.82;;;14.30;73.70;;;;;;4141639;28;20045;-66
2021/04/28 08:47:06;;;;;;;15.48;7.32;;;14.30;69.40;;;;;;4138664;28;20474;-66
2021/04/28 08:49:07;;;;;;;10.32;6.63;;;14.50;75.70;;;;;;4141366;28;20014;-66
2021/04/28 08:51:07;;;;;;;14.68;8.85;;;14.60;73.50;;;;;;4141446;28;20042;-66
2021/04/28 08:53:12;;;;;;;18.88;8.77;;;14.60;68.50;;;;;;4141009;28;20130;-66
2021/04/28 08:55:13;;;;;;;12.50;7.80;;;14.80;69.40;;;;;;4125835;28;20031;-66
2021/04/28 08:57:14;;;;;;;15.65;7.82;;;14.90;68.80;;;;;;4138920;28;20368;-66
2021/04/28 08:59:14;;;;;;;14.00;7.85;;;15.00;68.40;;;;;;4141096;28;20061;-66
2021/04/28 09:01:32;;;;;;;14.00;7.78;;;15.20;68.70;;;;;;4142116;28;20030;-66
2021/04/28 09:03:40;;;;;;;12.95;8.10;;;15.30;74.50;;;;;;4136845;28;20030;-69
2021/04/28 09:05:41;;;;;;;14.85;8.75;;;15.50;66.40;;;;;;4141362;28;20691;-68
2021/04/28 09:07:43;;;;;;;12.52;7.80;;;15.60;64.50;;;;;;4139074;28;20116;-69
2021/04/28 09:09:59;;;;;;;13.05;7.90;;;15.70;69.10;;;;;;4141375;28;20045;-69
2021/04/28 09:11:59;;;;;;;13.15;8.23;;;15.70;64.50;;;;;;4141050;28;20041;-66
2021/04/28 09:14:21;;;;;;;12.40;8.10;;;15.80;68.60;;;;;;4166397;28;20489;-66
2021/04/28 09:16:21;;;;;;;12.10;7.95;;;16.00;68.20;;;;;;4142974;28;20454;-66
2021/04/28 09:18:35;;;;;;;11.73;7.18;;;16.10;69.20;;;;;;4145481;28;20037;-66
2021/04/28 09:20:50;;;;;;;13.30;7.93;;;16.20;65.10;;;;;;4144257;28;20038;-66
2021/04/28 09:23:03;;;;;;;14.00;7.80;;;16.30;65.40;;;;;;4142189;28;20061;-67
2021/04/28 09:25:05;;;;;;;9.98;6.65;;;16.40;71.90;;;;;;4139476;28;20065;-66
2021/04/28 09:27:26;;;;;;;12.48;7.70;;;16.60;67.90;;;;;;4134719;28;20047;-66
2021/04/28 09:29:29;;;;;;;10.60;7.60;;;16.80;68.50;;;;;;4140508;28;20053;-66
2021/04/28 09:31:30;;;;;;;10.85;6.75;;;16.90;65.10;;;;;;4142379;28;20137;-66
2021/04/28 09:33:51;;;;;;;11.80;7.75;;;17.10;63.30;;;;;;4128893;28;20038;-67
2021/04/28 09:35:59;;;;;;;12.35;7.85;;;17.00;62.90;;;;;;4126886;28;20034;-66
2021/04/28 09:38:01;;;;;;;12.00;8.38;;;17.10;63.20;;;;;;4139398;28;20038;-66
2021/04/28 09:40:02;;;;;;;13.88;7.93;;;17.30;59.60;;;;;;4140842;28;20081;-66
2021/04/28 09:42:04;;;;;;;11.48;7.75;;;17.40;58.60;;;;;;4143917;28;20037;-66
2021/04/28 09:44:20;;;;;;;12.23;8.35;;;17.50;62.20;;;;;;4144885;28;20061;-66
2021/04/28 09:46:21;;;;;;;11.48;7.95;;;17.50;59.00;;;;;;4142079;28;20038;-66
2021/04/28 09:48:24;;;;;;;11.10;7.45;;;17.60;57.50;;;;;;4144098;28;20034;-66
2021/04/28 09:50:28;;;;;;;19.60;7.22;;;17.70;57.70;;;;;;4135042;28;20041;-69
2021/04/28 09:52:28;;;;;;;13.38;8.70;;;17.80;59.70;;;;;;4139474;28;20405;-66
2021/04/28 09:54:30;;;;;;;12.85;8.45;;;17.80;55.20;;;;;;4157656;28;20030;-66
2021/04/28 09:56:37;;;;;;;10.63;7.13;;;17.90;54.70;;;;;;4141077;28;20083;-67
2021/04/28 09:58:51;;;;;;;10.75;7.60;;;17.90;55.00;;;;;;4140949;28;20034;-66
2021/04/28 10:00:58;;;;;;;15.15;8.23;;;18.00;53.80;;;;;;4155257;28;20038;-66
2021/04/28 10:03:04;;;;;;;10.98;7.35;;;18.00;52.10;;;;;;4125169;28;20038;-66
2021/04/28 10:05:15;;;;;;;11.68;6.75;;;18.00;57.00;;;;;;4122373;28;20030;-66
2021/04/28 10:07:26;;;;;;;10.23;7.32;;;18.10;57.80;;;;;;4134638;28;20593;-66
2021/04/28 10:09:37;;;;;;;10.25;7.93;;;18.20;51.20;;;;;;4140601;28;20038;-66
2021/04/28 10:11:37;;;;;;;12.48;7.82;;;18.30;49.90;;;;;;4143623;28;20037;-66
2021/04/28 10:13:38;;;;;;;11.82;7.85;;;18.40;50.20;;;;;;4141050;28;20840;-66
2021/04/28 10:15:39;;;;;;;14.30;8.52;;;18.40;50.00;;;;;;4143877;28;20077;-69
2021/04/28 10:17:40;;;;;;;12.02;7.40;;;18.30;52.70;;;;;;4143973;28;20030;-69
2021/04/28 10:19:41;;;;;;;10.30;6.97;;;18.40;51.50;;;;;;4157052;28;20136;-69
2021/04/28 10:21:42;;;;;;;9.43;6.43;;;18.40;51.60;;;;;;4128445;28;20030;-66
2021/04/28 10:23:44;;;;;;;11.63;7.43;;;18.50;54.40;;;;;;4131449;28;20651;-66
2021/04/28 10:25:49;;;;;;;10.13;6.57;;;18.60;49.30;;;;;;4132660;28;20046;-66
2021/04/28 10:27:51;;;;;;;10.23;7.25;;;18.70;50.10;;;;;;4124988;28;20035;-66
2021/04/28 10:29:52;;;;;;;9.32;6.35;;;18.70;53.50;;;;;;4128833;28;20034;-66
2021/04/28 10:31:54;;;;;;;11.48;6.68;;;18.70;49.90;;;;;;4127114;28;20038;-66
2021/04/28 10:33:57;;;;;;;11.65;7.30;;;18.70;53.40;;;;;;4129868;28;20074;-66
2021/04/28 10:35:58;;;;;;;9.80;6.97;;;18.90;50.10;;;;;;4126484;28;20058;-66